Time;durP1;ratioP1;P1;durP2;ratioP2;P2;SDS_P1;SDS_P2;PMS_P1;PMS_P2;Temp;Humidity;BMP_temperature;BMP_pressure;BME280_temperature;BME280_humidity;BME280_pressure;Samples;Min_cycle;Max_cycle;Signal;HPM_P1;HPM_P2
2023/02/08 07:18:45;;;;;;;25.70;19.33;;;-2.00;99.90;;;;;;5049328;28;20095;-82
2023/02/08 07:21:11;;;;;;;26.27;19.70;;;-1.70;99.90;;;;;;5030555;28;20057;-83
2023/02/08 07:23:37;;;;;;;27.88;19.83;;;-1.80;99.90;;;;;;5046073;28;20412;-83
2023/02/08 07:29:49;;;;;;;23.25;18.25;;;-1.90;99.90;;;;;;5052070;28;20040;-84
2023/02/08 07:32:15;;;;;;;30.60;20.85;;;-2.00;99.90;;;;;;5033536;28;20107;-84
2023/02/08 07:34:40;;;;;;;26.13;19.65;;;-1.80;99.90;;;;;;5050027;28;20076;-84
2023/02/08 07:37:06;;;;;;;24.02;20.35;;;-2.00;99.90;;;;;;5029146;28;20039;-84
2023/02/08 07:39:32;;;;;;;28.92;20.30;;;-1.90;99.90;;;;;;5030473;28;20033;-85
2023/02/08 07:41:58;;;;;;;22.98;18.88;;;-1.90;99.90;;;;;;5014038;28;20052;-85
2023/02/08 07:44:24;;;;;;;24.73;20.15;;;-1.80;99.90;;;;;;5016709;28;20132;-85
2023/02/08 07:46:50;;;;;;;24.98;19.95;;;-1.80;99.90;;;;;;5048066;28;20156;-83
2023/02/08 07:49:15;;;;;;;25.80;21.15;;;-1.50;99.90;;;;;;5017947;28;20533;-84
2023/02/08 07:51:41;;;;;;;28.95;21.38;;;-1.70;99.90;;;;;;5034329;28;20037;-84
2023/02/08 07:54:07;;;;;;;29.17;21.23;;;-1.70;99.90;;;;;;5051606;28;20116;-84
2023/02/08 07:56:32;;;;;;;24.23;20.55;;;-1.60;99.90;;;;;;5033015;28;20036;-84
2023/02/08 07:58:58;;;;;;;24.08;19.98;;;-1.50;99.90;;;;;;5036403;28;20029;-85
2023/02/08 08:01:38;;;;;;;24.63;20.40;;;-0.20;99.90;;;;;;5034268;28;20416;-86
2023/02/08 08:04:04;;;;;;;23.75;19.70;;;-1.20;99.90;;;;;;5034628;28;20063;-84
2023/02/08 08:06:29;;;;;;;25.17;19.00;;;-1.40;99.90;;;;;;5020430;28;20525;-85
2023/02/08 08:08:55;;;;;;;31.15;20.75;;;-1.40;99.90;;;;;;5028981;28;20120;-84
2023/02/08 08:11:21;;;;;;;26.58;20.60;;;-1.40;99.90;;;;;;5015490;28;20057;-84
2023/02/08 08:13:46;;;;;;;35.10;21.35;;;-1.30;99.90;;;;;;5020604;28;20049;-84
2023/02/08 08:16:13;;;;;;;24.23;20.42;;;-1.20;99.90;;;;;;5017910;28;20049;-84
2023/02/08 08:18:38;;;;;;;23.00;19.30;;;-1.00;99.90;;;;;;5035626;28;20044;-83
2023/02/08 08:21:04;;;;;;;27.48;19.52;;;-1.00;99.90;;;;;;5032912;28;20037;-84
2023/02/08 08:23:32;;;;;;;26.02;19.08;;;-1.00;99.90;;;;;;5032633;28;20034;-84
2023/02/08 08:25:58;;;;;;;24.02;20.15;;;-0.90;99.90;;;;;;5043700;28;20045;-84
2023/02/08 08:28:25;;;;;;;24.42;18.88;;;-0.80;99.90;;;;;;5042955;28;20051;-84
2023/02/08 08:30:51;;;;;;;23.48;19.73;;;-0.80;99.90;;;;;;5054193;28;20112;-84
2023/02/08 08:33:16;;;;;;;23.02;19.38;;;-0.50;99.90;;;;;;5022975;28;20127;-83
2023/02/08 08:35:45;;;;;;;23.48;18.98;;;-0.60;99.90;;;;;;5052609;28;20166;-83
2023/02/08 08:38:11;;;;;;;23.88;18.52;;;-0.70;99.90;;;;;;5017525;28;20503;-83
2023/02/08 08:40:37;;;;;;;24.25;19.17;;;-0.60;99.90;;;;;;5028647;28;20090;-84
2023/02/08 08:43:02;;;;;;;22.63;18.77;;;-0.60;99.90;;;;;;5044939;28;20140;-83
2023/02/08 08:45:32;;;;;;;21.75;17.90;;;-0.50;99.90;;;;;;5048614;28;20706;-83
2023/02/08 08:47:59;;;;;;;21.67;18.17;;;-0.30;99.90;;;;;;5032487;28;20040;-83
2023/02/08 08:50:25;;;;;;;23.05;18.45;;;-0.30;99.90;;;;;;5046172;28;20045;-83
2023/02/08 08:52:50;;;;;;;21.15;17.13;;;-0.20;99.90;;;;;;5013289;28;20040;-85
2023/02/08 08:55:16;;;;;;;19.42;16.45;;;-0.20;99.90;;;;;;5030827;28;20621;-83
2023/02/08 08:57:43;;;;;;;22.25;17.98;;;-0.10;99.90;;;;;;5042121;28;20037;-83
2023/02/08 09:00:09;;;;;;;20.23;17.27;;;0.10;99.90;;;;;;5050944;28;20442;-84
2023/02/08 09:02:34;;;;;;;20.83;17.00;;;0.10;99.90;;;;;;5046764;28;20056;-83
2023/02/08 09:05:01;;;;;;;19.23;16.63;;;0.10;99.90;;;;;;5030472;28;20451;-82
2023/02/08 09:07:38;;;;;;;19.63;17.15;;;0.20;99.90;;;;;;5026169;28;20072;-85
2023/02/08 09:10:04;;;;;;;40.20;28.73;;;0.30;99.90;;;;;;5024991;28;20040;-82
2023/02/08 09:12:30;;;;;;;21.38;16.02;;;0.30;99.90;;;;;;5011568;28;20046;-83
2023/02/08 09:14:55;;;;;;;19.38;16.67;;;0.50;99.90;;;;;;5047196;28;20428;-84
2023/02/08 09:17:21;;;;;;;20.67;16.45;;;0.50;99.90;;;;;;5014051;28;20036;-84
2023/02/08 09:19:46;;;;;;;21.42;15.82;;;0.60;99.90;;;;;;5031755;28;20040;-82
2023/02/08 09:22:13;;;;;;;20.63;16.70;;;0.70;99.90;;;;;;5013903;28;20103;-83
2023/02/08 09:24:38;;;;;;;17.63;14.38;;;0.70;99.90;;;;;;5045728;28;20487;-81
2023/02/08 09:27:05;;;;;;;20.50;14.90;;;0.70;99.90;;;;;;5028980;28;20044;-83
2023/02/08 09:29:32;;;;;;;18.20;15.05;;;0.50;99.90;;;;;;5043256;28;20120;-83
2023/02/08 09:31:58;;;;;;;18.63;14.77;;;0.90;99.90;;;;;;5012155;28;20076;-81
2023/02/08 09:34:26;;;;;;;15.80;13.27;;;0.90;99.90;;;;;;5035285;28;20072;-82
2023/02/08 09:36:52;;;;;;;23.83;15.27;;;1.00;99.90;;;;;;5027038;28;20080;-83
2023/02/08 09:39:21;;;;;;;17.95;14.57;;;1.00;99.90;;;;;;5029205;28;20119;-82
2023/02/08 09:42:11;;;;;;;18.48;13.88;;;1.10;99.90;;;;;;5029449;28;20037;-83
2023/02/08 09:45:05;;;;;;;17.42;14.52;;;1.10;99.90;;;;;;5020296;28;20129;-84
2023/02/08 09:47:45;;;;;;;20.75;14.88;;;1.20;99.90;;;;;;5043173;28;20106;-84
2023/02/08 09:50:55;;;;;;;16.67;14.80;;;1.30;99.90;;;;;;5023562;28;20037;-83
2023/02/08 09:53:29;;;;;;;17.67;13.55;;;1.40;99.90;;;;;;5017591;28;20131;-82
2023/02/08 09:55:58;;;;;;;20.83;13.35;;;1.40;99.90;;;;;;5025724;28;20041;-81
2023/02/08 09:58:51;;;;;;;15.32;13.30;;;1.60;99.90;;;;;;5025455;28;20047;-83
2023/02/08 10:01:24;;;;;;;15.60;12.63;;;1.70;99.90;;;;;;5021949;28;20152;-83
2023/02/08 10:03:59;;;;;;;13.85;11.80;;;1.80;99.90;;;;;;5008812;28;20041;-81
2023/02/08 10:06:25;;;;;;;15.40;13.20;;;2.00;99.90;;;;;;5041764;28;20041;-84
2023/02/08 10:08:52;;;;;;;14.93;12.55;;;2.00;99.90;;;;;;5029915;28;20047;-83
2023/02/08 10:11:42;;;;;;;16.25;12.45;;;2.20;99.90;;;;;;5021825;28;20060;-85
2023/02/08 10:14:36;;;;;;;14.13;11.77;;;2.30;99.90;;;;;;5043004;28;20040;-83
2023/02/08 10:17:09;;;;;;;14.95;12.20;;;2.40;99.90;;;;;;5022796;28;20063;-84
2023/02/08 10:20:14;;;;;;;13.52;11.88;;;2.50;99.90;;;;;;5008775;28;20553;-82
2023/02/08 10:23:06;;;;;;;16.35;12.15;;;2.70;99.90;;;;;;4979870;28;20048;-84
2023/02/08 10:25:54;;;;;;;14.05;11.65;;;3.40;99.90;;;;;;5025308;28;20049;-84
2023/02/08 10:28:20;;;;;;;14.73;12.10;;;2.80;99.90;;;;;;5023768;28;20460;-84
2023/02/08 10:30:54;;;;;;;12.90;11.60;;;2.90;99.90;;;;;;5024677;28;20139;-85
2023/02/08 10:33:45;;;;;;;13.88;10.63;;;2.90;99.90;;;;;;5026797;28;20092;-84
2023/02/08 10:36:17;;;;;;;13.77;11.82;;;3.00;99.90;;;;;;5021854;28;20049;-85
2023/02/08 10:38:42;;;;;;;13.38;11.13;;;3.10;99.90;;;;;;5042221;28;20071;-85
2023/02/08 10:41:16;;;;;;;11.60;9.88;;;3.30;99.90;;;;;;5005925;28;20127;-83
2023/02/08 10:43:51;;;;;;;11.98;10.10;;;3.40;99.90;;;;;;5009376;28;20172;-84
2023/02/08 10:46:46;;;;;;;12.13;10.63;;;3.60;99.90;;;;;;5008188;28;20065;-86
2023/02/08 10:49:34;;;;;;;12.57;10.25;;;3.70;99.90;;;;;;5005963;28;20792;-86
2023/02/08 10:52:01;;;;;;;11.95;10.63;;;3.80;99.90;;;;;;5043014;28;20048;-85
2023/02/08 10:54:26;;;;;;;11.32;8.38;;;3.90;99.90;;;;;;5023134;28;20092;-85
2023/02/08 10:56:56;;;;;;;11.65;8.45;;;4.10;99.90;;;;;;5006735;28;20052;-82
2023/02/08 10:59:34;;;;;;;11.80;9.45;;;4.20;99.90;;;;;;5021269;28;20514;-83
2023/02/08 11:01:59;;;;;;;10.95;9.15;;;4.40;99.90;;;;;;5020466;28;20029;-84
2023/02/08 11:04:25;;;;;;;8.88;7.88;;;4.50;99.90;;;;;;5041290;28;20033;-85
2023/02/08 11:06:53;;;;;;;16.83;8.98;;;4.60;99.90;;;;;;5012031;28;20394;-85
2023/02/08 11:09:28;;;;;;;11.35;8.75;;;4.80;99.90;;;;;;5026280;28;20072;-86
2023/02/08 11:11:55;;;;;;;12.32;8.60;;;5.00;99.90;;;;;;5039750;28;20076;-83
2023/02/08 11:14:30;;;;;;;9.80;8.27;;;5.20;99.90;;;;;;5027032;28;20559;-83
2023/02/08 11:16:57;;;;;;;10.65;8.20;;;5.30;99.90;;;;;;5041400;28;20052;-83
2023/02/08 11:19:41;;;;;;;9.68;7.40;;;5.40;99.90;;;;;;5026100;28;20041;-84
2023/02/08 11:22:15;;;;;;;9.18;8.18;;;5.60;99.90;;;;;;5009019;28;20130;-85
2023/02/08 11:24:42;;;;;;;11.02;8.07;;;5.80;99.90;;;;;;5025673;28;20048;-85
2023/02/08 11:27:20;;;;;;;13.15;8.65;;;5.90;99.90;;;;;;5006108;28;20469;-83
2023/02/08 11:29:45;;;;;;;9.60;7.97;;;6.10;99.90;;;;;;5023953;28;20140;-86
2023/02/08 11:32:19;;;;;;;8.23;7.10;;;6.30;99.90;;;;;;5021185;28;20044;-86
2023/02/08 11:34:45;;;;;;;11.45;7.70;;;6.40;99.90;;;;;;5025471;28;20388;-84
2023/02/08 11:37:27;;;;;;;9.25;7.90;;;6.70;99.90;;;;;;5005989;28;20028;-85
2023/02/08 11:39:58;;;;;;;8.18;7.38;;;6.80;99.90;;;;;;5039323;28;20075;-86
2023/02/08 11:42:27;;;;;;;9.10;8.20;;;7.00;99.90;;;;;;5023841;28;20041;-84
2023/02/08 11:49:00;;;;;;;8.95;7.68;;;7.40;99.90;;;;;;5027132;28;20105;-82
2023/02/08 11:51:29;;;;;;;8.75;7.55;;;7.60;99.90;;;;;;5029371;28;20045;-86
2023/02/08 11:53:56;;;;;;;7.72;6.05;;;7.70;99.90;;;;;;5028976;28;20103;-84
2023/02/08 11:56:26;;;;;;;8.73;6.28;;;8.00;99.90;;;;;;5008783;28;20051;-83
2023/02/08 11:58:59;;;;;;;8.50;6.40;;;8.10;99.90;;;;;;5009750;28;20040;-80
2023/02/08 12:01:28;;;;;;;7.50;6.40;;;8.10;99.90;;;;;;5042354;28;20869;-85
2023/02/08 12:03:56;;;;;;;7.55;5.97;;;8.20;99.90;;;;;;5014693;28;20041;-81
2023/02/08 12:06:49;;;;;;;6.70;6.03;;;8.30;99.90;;;;;;5028189;28;20207;-84
2023/02/08 12:09:40;;;;;;;6.00;4.90;;;8.40;99.90;;;;;;5026790;28;20056;-84
2023/02/08 12:12:18;;;;;;;8.70;5.18;;;8.40;99.90;;;;;;5044633;28;20063;-79
2023/02/08 12:15:09;;;;;;;6.18;5.55;;;8.30;99.90;;;;;;5014041;28;20526;-83
2023/02/08 12:17:48;;;;;;;6.88;5.18;;;8.30;99.90;;;;;;5021646;28;20041;-81
2023/02/08 12:20:32;;;;;;;5.70;4.50;;;8.30;99.90;;;;;;5026925;28;20045;-82
2023/02/08 12:23:12;;;;;;;5.05;4.03;;;8.30;99.90;;;;;;5011544;28;20313;-82
2023/02/08 12:25:41;;;;;;;5.68;4.93;;;8.20;99.90;;;;;;5026624;28;21396;-83
2023/02/08 12:28:24;;;;;;;8.15;5.72;;;8.20;99.90;;;;;;5047201;28;20095;-81
2023/02/08 12:30:58;;;;;;;5.43;4.93;;;8.30;99.90;;;;;;5029008;28;20068;-82
2023/02/08 12:33:42;;;;;;;7.07;6.03;;;8.30;99.90;;;;;;5015358;28;20123;-80
2023/02/08 12:36:18;;;;;;;6.40;5.22;;;8.30;99.90;;;;;;5005630;28;20494;-82
2023/02/08 12:42:29;;;;;;;7.57;5.45;;;8.30;99.90;;;;;;5048265;28;20037;-80
2023/02/08 12:45:33;;;;;;;6.10;5.13;;;8.30;99.90;;;;;;5026610;28;20044;-82
2023/02/08 13:04:42;;;;;;;12.18;6.03;;;8.10;98.90;;;;;;5117066;27;20433;-80
2023/02/08 13:07:26;;;;;;;8.65;6.28;;;8.10;99.90;;;;;;5068298;28;20044;-80
2023/02/08 13:10:11;;;;;;;7.22;5.57;;;8.00;99.70;;;;;;5093620;28;20264;-78
2023/02/08 13:12:48;;;;;;;6.60;5.90;;;8.00;99.90;;;;;;5075950;28;20044;-81
2023/02/08 13:15:26;;;;;;;7.95;5.72;;;7.90;99.40;;;;;;5090484;28;20040;-80
2023/02/08 13:18:19;;;;;;;6.13;5.03;;;8.50;99.90;;;;;;5071263;28;20051;-81
2023/02/08 13:20:49;;;;;;;8.45;6.53;;;7.80;99.90;;;;;;5071382;28;20039;-78
2023/02/08 13:23:22;;;;;;;6.28;5.03;;;7.80;99.90;;;;;;5099950;28;20059;-83
2023/02/08 13:25:52;;;;;;;9.05;4.65;;;8.00;99.90;;;;;;5081913;28;20126;-80
2023/02/08 13:28:21;;;;;;;6.03;4.45;;;7.90;99.90;;;;;;5085731;28;20896;-80
2023/02/08 13:31:11;;;;;;;6.35;4.28;;;7.60;99.10;;;;;;5062390;28;20130;-83
2023/02/08 13:33:36;;;;;;;6.80;4.25;;;7.70;99.30;;;;;;5084392;28;20055;-84
2023/02/08 13:36:03;;;;;;;6.22;3.97;;;7.70;99.40;;;;;;5066829;28;20035;-85
2023/02/08 13:38:36;;;;;;;6.47;4.40;;;7.70;98.60;;;;;;5087620;28;20478;-82
2023/02/08 13:41:24;;;;;;;5.55;3.17;;;7.30;99.30;;;;;;5099407;28;20050;-83
2023/02/08 13:43:54;;;;;;;4.43;3.53;;;7.50;98.30;;;;;;5087815;28;20048;-84
2023/02/08 13:46:23;;;;;;;5.95;3.38;;;7.80;97.70;;;;;;5084055;28;20595;-85
2023/02/08 13:48:58;;;;;;;3.78;3.10;;;7.50;96.20;;;;;;5068993;28;20047;-83
2023/02/08 13:51:30;;;;;;;3.88;3.25;;;7.60;97.00;;;;;;5088679;28;20040;-81
2023/02/08 13:53:56;;;;;;;5.20;3.88;;;7.50;97.70;;;;;;5081126;28;20052;-81
2023/02/08 13:56:45;;;;;;;4.97;3.85;;;7.50;97.20;;;;;;5089407;28;20047;-84
2023/02/08 13:59:28;;;;;;;6.75;3.42;;;7.50;97.10;;;;;;5068129;28;20159;-81
2023/02/08 14:02:18;;;;;;;5.85;3.33;;;7.40;95.60;;;;;;5069745;28;20591;-82
2023/02/08 14:04:46;;;;;;;4.70;3.05;;;7.40;96.70;;;;;;5071463;28;20073;-80
2023/02/08 14:07:31;;;;;;;4.43;3.17;;;7.50;96.80;;;;;;5053967;28;20040;-82
2023/02/08 14:10:19;;;;;;;5.30;3.63;;;7.40;97.40;;;;;;5058517;28;20039;-81
2023/02/08 14:12:52;;;;;;;7.97;3.25;;;7.40;95.70;;;;;;5070444;28;20594;-81
2023/02/08 14:15:23;;;;;;;4.95;2.70;;;7.40;95.70;;;;;;5075283;28;20395;-82
2023/02/08 14:17:55;;;;;;;20.35;18.08;;;7.40;96.80;;;;;;5078131;28;20036;-79
2023/02/08 14:20:38;;;;;;;10.98;5.93;;;7.40;96.10;;;;;;5064078;28;20084;-79
2023/02/08 14:23:26;;;;;;;12.75;10.55;;;7.40;95.80;;;;;;5049251;28;20103;-81
2023/02/08 14:25:55;;;;;;;4.63;3.13;;;7.00;97.00;;;;;;5077929;28;20574;-83
2023/02/08 14:28:34;;;;;;;5.85;2.47;;;7.30;96.40;;;;;;5053587;28;20043;-81
2023/02/08 14:31:09;;;;;;;3.70;2.53;;;7.30;95.80;;;;;;5086735;28;20063;-84
2023/02/08 14:33:50;;;;;;;4.38;2.65;;;7.50;96.20;;;;;;5053295;28;20036;-80
2023/02/08 14:36:32;;;;;;;5.97;2.65;;;7.30;95.90;;;;;;5067783;28;20059;-81
2023/02/08 14:39:16;;;;;;;2.90;1.98;;;7.30;96.40;;;;;;5077908;28;20063;-80
2023/02/08 14:41:53;;;;;;;2.67;2.17;;;7.20;97.10;;;;;;5077019;28;20487;-82
2023/02/08 14:44:37;;;;;;;5.95;2.00;;;7.10;95.20;;;;;;5052865;28;20433;-82
2023/02/08 14:47:11;;;;;;;4.05;1.77;;;7.30;95.50;;;;;;5057991;28;20044;-81
2023/02/08 14:49:41;;;;;;;3.20;2.22;;;7.10;95.40;;;;;;5086775;28;20043;-81
2023/02/08 14:52:24;;;;;;;2.28;1.95;;;7.00;96.10;;;;;;5068572;28;20044;-80
2023/02/08 14:54:58;;;;;;;3.97;1.90;;;7.00;94.70;;;;;;5047623;28;20053;-80
2023/02/08 14:57:30;;;;;;;2.95;2.25;;;7.00;96.10;;;;;;5071988;28;20127;-79
2023/02/08 14:59:59;;;;;;;5.90;1.85;;;7.00;95.80;;;;;;5051814;28;20044;-81
2023/02/08 15:02:30;;;;;;;2.45;1.98;;;6.90;96.30;;;;;;5063246;28;20113;-80
2023/02/08 15:04:57;;;;;;;3.75;1.70;;;6.90;96.20;;;;;;5055831;28;20567;-81
2023/02/08 15:07:42;;;;;;;3.03;2.15;;;6.90;97.00;;;;;;5069010;28;20116;-82
2023/02/08 15:10:14;;;;;;;4.10;2.08;;;6.90;95.20;;;;;;5056649;28;20040;-80
2023/02/08 15:12:43;;;;;;;2.67;2.20;;;6.90;95.50;;;;;;5090921;28;20047;-80
2023/02/08 15:15:35;;;;;;;3.00;2.05;;;6.80;95.50;;;;;;5067161;28;20033;-81
2023/02/08 15:18:03;;;;;;;2.30;1.52;;;6.80;94.50;;;;;;5073781;28;20194;-82
2023/02/08 15:20:32;;;;;;;2.60;1.65;;;6.90;95.10;;;;;;5087586;28;20039;-82
2023/02/08 15:23:04;;;;;;;4.03;2.22;;;6.70;95.40;;;;;;5073060;28;21439;-81
2023/02/08 15:25:32;;;;;;;3.50;2.22;;;6.60;96.40;;;;;;5085703;28;20119;-81
2023/02/08 15:28:17;;;;;;;2.67;1.80;;;7.70;95.60;;;;;;5051702;28;20048;-80
2023/02/08 15:30:43;;;;;;;2.67;1.98;;;6.60;95.70;;;;;;5068254;28;20051;-80
2023/02/08 15:33:15;;;;;;;3.60;1.67;;;6.90;96.00;;;;;;5073128;28;20040;-81
2023/02/08 15:35:42;;;;;;;4.43;1.65;;;6.60;95.90;;;;;;5071847;28;20047;-85
2023/02/08 15:38:43;;;;;;;2.08;1.63;;;6.50;96.00;;;;;;5058534;28;20062;-84
2023/02/08 15:41:25;;;;;;;3.80;1.85;;;6.10;96.40;;;;;;5066078;28;20147;-83
2023/02/08 15:44:02;;;;;;;4.00;2.13;;;6.70;96.80;;;;;;5044422;28;20468;-83
2023/02/08 15:46:41;;;;;;;3.90;2.03;;;6.10;96.20;;;;;;5068578;28;20119;-86
2023/02/08 15:52:40;;;;;;;3.40;1.88;;;6.10;97.40;;;;;;5049266;28;20048;-85
2023/02/08 15:55:09;;;;;;;2.90;2.10;;;6.00;97.30;;;;;;5037812;28;20033;-85
2023/02/08 15:57:39;;;;;;;3.20;1.40;;;5.90;98.20;;;;;;5040002;28;20033;-84
2023/02/08 16:00:16;;;;;;;2.97;1.70;;;6.30;99.90;;;;;;5027397;28;20048;-84
2023/02/08 16:02:42;;;;;;;4.03;1.90;;;5.60;99.90;;;;;;5054804;28;20037;-81
2023/02/08 16:05:19;;;;;;;2.40;2.00;;;6.00;99.90;;;;;;5032419;28;20075;-81
2023/02/08 16:07:46;;;;;;;3.00;2.03;;;5.40;99.90;;;;;;5071244;28;20887;-83
2023/02/08 16:10:33;;;;;;;2.10;1.90;;;5.00;99.90;;;;;;5052922;28;20048;-81
2023/02/08 16:13:03;;;;;;;5.10;2.08;;;5.10;99.90;;;;;;5068500;28;20045;-81
2023/02/08 16:15:47;;;;;;;4.50;2.00;;;5.10;99.90;;;;;;5028620;28;20538;-79
2023/02/08 16:18:49;;;;;;;1.85;1.45;;;5.00;99.90;;;;;;5045248;28;20067;-78
2023/02/08 16:21:23;;;;;;;5.97;2.22;;;4.90;99.90;;;;;;5019903;28;20040;-82
2023/02/08 16:23:55;;;;;;;2.63;1.73;;;5.60;99.90;;;;;;5043656;28;20065;-82
2023/02/08 16:26:27;;;;;;;2.97;2.33;;;5.40;99.90;;;;;;5031009;28;20186;-81
2023/02/08 16:29:05;;;;;;;3.63;2.40;;;5.80;99.90;;;;;;5063605;28;20166;-82
2023/02/08 16:31:34;;;;;;;2.88;2.05;;;4.90;99.90;;;;;;5038723;28;20146;-83
2023/02/08 16:34:16;;;;;;;3.47;1.73;;;5.70;99.90;;;;;;5003430;28;20065;-83
2023/02/08 16:36:48;;;;;;;2.80;1.88;;;4.50;99.90;;;;;;5004258;28;20091;-84
2023/02/08 16:39:14;;;;;;;10.05;2.15;;;4.70;99.90;;;;;;4992787;28;20044;-83
2023/02/08 16:41:53;;;;;;;4.03;1.95;;;4.60;99.90;;;;;;4986829;28;20405;-81
2023/02/08 16:44:24;;;;;;;2.63;1.60;;;4.80;99.90;;;;;;5003730;28;20042;-83
2023/02/08 16:46:53;;;;;;;4.15;2.33;;;4.50;99.80;;;;;;4987839;28;20517;-82
2023/02/08 16:49:19;;;;;;;6.10;2.03;;;4.70;99.90;;;;;;4998950;28;20548;-82
2023/02/08 16:51:45;;;;;;;9.10;2.08;;;5.20;99.90;;;;;;4988828;28;20094;-81
2023/02/08 16:54:16;;;;;;;2.83;2.30;;;5.30;99.90;;;;;;5005218;28;20117;-83
2023/02/08 16:56:44;;;;;;;3.80;2.30;;;4.20;99.90;;;;;;4983910;28;20048;-83
2023/02/08 16:59:12;;;;;;;3.40;2.10;;;4.20;99.90;;;;;;5002060;28;20120;-83
2023/02/08 17:01:38;;;;;;;2.80;2.33;;;4.50;99.90;;;;;;5002875;28;20821;-80
2023/02/08 17:04:05;;;;;;;3.15;2.05;;;3.90;99.90;;;;;;4994168;28;20049;-80
2023/02/08 17:06:37;;;;;;;4.03;2.20;;;4.10;99.90;;;;;;4989902;28;20125;-83
2023/02/08 17:09:05;;;;;;;3.50;2.70;;;3.60;99.90;;;;;;5007869;28;20042;-81
2023/02/08 17:11:34;;;;;;;3.65;2.28;;;3.40;99.90;;;;;;5004138;28;20050;-84
2023/02/08 17:30:54;;;;;;;6.53;2.80;;;3.20;99.90;;;;;;4969107;28;20101;-86
2023/02/08 17:44:49;;;;;;;5.60;3.50;;;2.50;99.90;;;;;;4931376;28;20047;-82
2023/02/08 17:47:41;;;;;;;6.22;4.25;;;3.70;99.90;;;;;;4942544;28;20047;-83
2023/02/08 18:05:59;;;;;;;5.78;2.90;;;2.30;99.90;;;;;;4898430;29;20092;-83
2023/02/08 18:13:03;;;;;;;6.18;3.15;;;2.50;99.90;;;;;;4880342;29;20602;-83
2023/02/08 18:40:35;;;;;;;;;;;;;;;;;;;;;
2023/02/08 18:46:35;;;;;;;5.43;2.95;;;2.20;99.90;;;;;;4952740;28;20402;-81
2023/02/08 19:56:32;;;;;;;5.78;3.03;;;1.20;99.90;;;;;;5781216;23;20127;-80
2023/02/08 21:08:27;;;;;;;11.98;7.22;;;0.30;99.90;;;;;;4988854;28;20041;-82
2023/02/08 21:12:15;;;;;;;;;;;;;;;;;;;;;
2023/02/08 21:14:49;;;;;;;10.57;6.72;;;-0.70;99.90;;;;;;4978587;28;20413;-82
